EA5AFP-10 Ador ES current weather conditions

sailwx.info

Wind from 270 at 0 knots gusting 2

Air temperature 14.4° C
Dewpoint -24.7° C

Last reported at 2020-Jan-17 17:49 UTC.
Time now 2020-Jan-17 18:21 UTC

Location: N 38°55' W 000°13'.
View on Google Maps.

See reports from other nearby stations

  
Tides and Currents Weather Stations Pressure Air Temp Water Temp Dewpoint Dewpoint Depression Visibility Wind Speed Wind Dir Waves Ship Positions
date/time (UTC)wind fromknots sea level pressurealtimeterstation pressurevisibilityair tempwater tempwave heightnotes
2020-Jan-17 17:49 270 0 gusting 2 14.4
2020-Jan-17 17:39 270 13.9
2020-Jan-17 17:30 270 13.9
2020-Jan-17 17:22 270 2 gusting 3 14.4
2020-Jan-17 17:13 15.6
2020-Jan-17 17:05 270 0 gusting 2 16.7
2020-Jan-17 16:56 16.7
2020-Jan-17 16:47 16.7
2020-Jan-17 16:38 16.7
2020-Jan-17 16:29 315 5 gusting 7 16.7
2020-Jan-17 16:20 17.2
2020-Jan-17 16:11 270 2 gusting 6 17.2
2020-Jan-17 16:02 315 5 gusting 6 17.2
2020-Jan-17 15:54 17.2
2020-Jan-17 15:46 270 0 gusting 5 17.2
2020-Jan-17 15:38 315 0 gusting 2 17.2
2020-Jan-17 15:28 270 6 gusting 8 17.2
2020-Jan-17 15:19 270 5 gusting 8 17.2
2020-Jan-17 15:09 270 2 gusting 5 17.8
2020-Jan-17 14:59 270 6 gusting 11 17.8
2020-Jan-17 14:51 315 4 gusting 7 17.8
2020-Jan-17 14:43 17.8
2020-Jan-17 14:35 270 2 gusting 5 17.2
2020-Jan-17 14:26 315 2 gusting 6 17.8
2020-Jan-17 14:16 270 3 gusting 7 17.8
2020-Jan-17 14:07 270 2 gusting 5 17.8
2020-Jan-17 13:59 045 6 gusting 11 17.8
2020-Jan-17 13:50 315 4 gusting 7 17.8
2020-Jan-17 13:42 270 5 gusting 10 17.8
2020-Jan-17 13:32 18.3
2020-Jan-17 13:23 18.3
2020-Jan-17 13:14 270 5 gusting 9 18.3
2020-Jan-17 13:05 270 2 gusting 5 18.3
2020-Jan-17 12:56 18.3
2020-Jan-17 12:46 270 1 gusting 5 18.3
2020-Jan-17 12:38 225 2 gusting 5 17.8
2020-Jan-17 12:29 270 2 gusting 6 17.8
2020-Jan-17 12:20 17.8
2020-Jan-17 12:10 315 5 gusting 10 17.8
2020-Jan-17 12:02 270 6 gusting 10 17.8
2020-Jan-17 11:54 270 5 gusting 9 17.8
2020-Jan-17 11:45 315 6 gusting 10 17.8
2020-Jan-17 11:36 315 9 gusting 13 17.2
2020-Jan-17 11:26 225 7 gusting 14 17.2
2020-Jan-17 11:17 270 6 gusting 12 17.2
2020-Jan-17 11:08 315 1 gusting 7 17.2
2020-Jan-17 11:00 270 6 gusting 11 17.2
2020-Jan-17 10:51 270 5 gusting 8 16.7
2020-Jan-17 10:42 270 4 gusting 7 16.7
2020-Jan-17 10:34 16.7
2020-Jan-17 10:25 16.7
2020-Jan-17 10:17 315 4 gusting 7 16.7
2020-Jan-17 10:09 16.7
2020-Jan-17 09:59 270 7 gusting 19 16.1
2020-Jan-17 09:49 315 1 gusting 7 16.1
2020-Jan-17 09:41 270 3 gusting 6 15.6
2020-Jan-17 09:33 270 4 gusting 10 15.6
2020-Jan-17 09:24 180 2 gusting 4 15.0
2020-Jan-17 09:14 270 2 gusting 4 15.0
2020-Jan-17 09:06 270 1 gusting 3 15.0
2020-Jan-17 08:58 270 2 gusting 3 14.4
2020-Jan-17 08:49 15.0
2020-Jan-17 08:41 135 0 gusting 2 15.0
2020-Jan-17 08:32 270 0 gusting 4 14.4
2020-Jan-17 08:23 14.4
2020-Jan-17 08:14 180 5 gusting 6 13.9
2020-Jan-17 08:04 225 0 gusting 2 13.3
2020-Jan-17 07:55 12.8
2020-Jan-17 07:45 12.8
2020-Jan-17 07:36 12.2
2020-Jan-17 07:28 12.2
2020-Jan-17 07:18 180 2 gusting 4 12.2
2020-Jan-17 07:10 12.2
2020-Jan-17 07:01 135 12.2
2020-Jan-17 06:52 12.2
2020-Jan-17 06:42 270 1 gusting 3 12.2
2020-Jan-17 06:32 270 1 gusting 2 12.8
2020-Jan-17 06:23 270 2 gusting 4 12.8
2020-Jan-17 06:14 270 2 gusting 6 12.2
2020-Jan-17 06:05 225 2 gusting 5 12.8
2020-Jan-17 05:57 270 2 gusting 5 12.8
2020-Jan-17 05:48 270 4 gusting 6 12.8
2020-Jan-17 05:38 180 6 gusting 14 12.8
2020-Jan-17 05:29 270 9 gusting 19 12.8
2020-Jan-17 05:20 270 4 gusting 7 12.8
2020-Jan-17 05:10 270 3 gusting 7 12.2
2020-Jan-17 05:00 270 2 gusting 5 11.7
2020-Jan-17 04:52 270 3 gusting 5 11.7
2020-Jan-17 04:43 270 3 gusting 6 11.7
2020-Jan-17 04:34 225 2 gusting 4 11.7
2020-Jan-17 04:26 270 2 gusting 6 11.7
2020-Jan-17 04:16 270 2 gusting 5 11.7
2020-Jan-17 04:08 270 2 gusting 4 11.7
2020-Jan-17 03:58 270 0 gusting 2 11.7
2020-Jan-17 03:49 270 1 gusting 2 11.1
2020-Jan-17 03:40 11.1
2020-Jan-17 03:31 270 1 gusting 3 11.7
2020-Jan-17 03:21 270 2 gusting 3 12.2
2020-Jan-17 03:12 270 0 gusting 2 12.2
2020-Jan-17 03:04 270 3 gusting 7 12.2
2020-Jan-17 02:55 270 3 gusting 6 12.2
2020-Jan-17 02:45 270 3 gusting 6 12.2
2020-Jan-17 02:35 315 2 gusting 5 12.2
2020-Jan-17 02:27 315 4 gusting 5 12.2
2020-Jan-17 02:17 12.2
2020-Jan-17 02:09 270 2 gusting 4 12.8
2020-Jan-17 02:01 270 4 gusting 6 12.8
2020-Jan-17 01:52 270 3 gusting 5 12.8
2020-Jan-17 01:42 270 4 gusting 6 12.8
2020-Jan-17 01:32 270 4 gusting 6 12.8
2020-Jan-17 01:24 270 5 gusting 7 12.8
2020-Jan-17 01:15 315 2 gusting 4 12.8
2020-Jan-17 01:06 315 3 gusting 5 12.8
2020-Jan-17 00:58 270 4 gusting 5 12.8
2020-Jan-17 00:50 270 3 gusting 5 12.8
2020-Jan-17 00:40 315 2 gusting 4 12.8
2020-Jan-17 00:32 270 2 gusting 5 12.8
2020-Jan-17 00:22 270 3 gusting 7 13.3
2020-Jan-17 00:14 13.3
2020-Jan-17 00:05 270 2 gusting 5 13.3
2020-Jan-16 23:57 270 2 gusting 4 13.3
2020-Jan-16 23:48 270 3 gusting 5 13.3
2020-Jan-16 23:38 270 2 gusting 5 13.3
2020-Jan-16 23:29 270 2 gusting 6 13.3
2020-Jan-16 23:19 270 3 gusting 7 13.3
2020-Jan-16 23:11 270 1 gusting 2 13.3
2020-Jan-16 23:02 270 2 gusting 4 13.3
2020-Jan-16 22:53 270 4 gusting 6 13.3
2020-Jan-16 22:44 270 3 gusting 5 13.9
2020-Jan-16 22:35 270 2 gusting 5 13.9
2020-Jan-16 22:26 270 5 gusting 8 13.9
2020-Jan-16 22:16 225 4 gusting 7 13.9
2020-Jan-16 22:08 270 3 gusting 5 13.9
2020-Jan-16 21:59 270 5 gusting 8 13.9
2020-Jan-16 21:50 315 5 gusting 9 13.9
2020-Jan-16 21:42 270 7 gusting 10 14.4
2020-Jan-16 21:34 270 5 gusting 8 14.4
2020-Jan-16 21:24 270 5 gusting 9 14.4
2020-Jan-16 21:14 315 5 gusting 7 14.4
2020-Jan-16 21:05 315 2 gusting 5 14.4
2020-Jan-16 20:57 315 5 gusting 8 13.9
2020-Jan-16 20:48 315 3 gusting 6 13.9
2020-Jan-16 20:38 315 1 gusting 4 12.8
2020-Jan-16 20:28 12.8
2020-Jan-16 20:19 180 1 gusting 2 13.3
2020-Jan-16 20:10 270 1 gusting 2 13.9
2020-Jan-16 20:01 270 1 gusting 3 12.8
2020-Jan-16 19:53 270 0 gusting 2 10.6
2020-Jan-16 19:45 10.0
2020-Jan-16 19:36 9.4
2020-Jan-16 19:27 10.0
2020-Jan-16 19:18 10.0
2020-Jan-16 19:10 10.0
2020-Jan-16 19:00 10.6
2020-Jan-16 18:51 10.6
2020-Jan-16 18:43 10.6
2020-Jan-16 18:35 270 1 gusting 2 10.6
2020-Jan-16 18:26 270 1 gusting 2 10.6
2020-Jan-16 18:17 270 0 gusting 2 10.6
2020-Jan-16 18:07 270 2 gusting 3 11.1
2020-Jan-16 17:58 270 1 gusting 2 11.1
2020-Jan-16 17:49 270 2 gusting 4 11.1
2020-Jan-16 17:41 270 1 gusting 2 11.1
2020-Jan-16 17:31 270 0 gusting 2 11.1
2020-Jan-16 17:23 270 1 gusting 2 11.1
2020-Jan-16 17:14 270 0 gusting 2 11.7
2020-Jan-16 17:04 270 0 gusting 2 11.7
2020-Jan-16 16:55 270 0 gusting 2 12.2
2020-Jan-16 16:46 12.2
2020-Jan-16 16:36 270 2 gusting 3 12.8
2020-Jan-16 16:26 270 1 gusting 2 13.3
2020-Jan-16 16:18 270 1 gusting 2 13.3
2020-Jan-16 16:09 270 13.9
2020-Jan-16 15:59 270 0 gusting 2 14.4
2020-Jan-16 15:50 15.0
2020-Jan-16 15:40 15.6
2020-Jan-16 15:32 090 15.6
2020-Jan-16 15:22 090 2 gusting 5 15.6
2020-Jan-16 15:14 090 0 gusting 2 15.6
2020-Jan-16 15:05 090 0 gusting 2 15.6
2020-Jan-16 14:57 090 1 gusting 2 15.6
2020-Jan-16 14:48 15.6
2020-Jan-16 14:39 045 15.6
2020-Jan-16 14:30 135 2 gusting 4 15.6
2020-Jan-16 14:21 090 0 gusting 2 15.6
2020-Jan-16 14:13 090 1 gusting 4 16.1
2020-Jan-16 14:03 090 0 gusting 2 16.1
2020-Jan-16 13:55 045 2 gusting 5 16.1
2020-Jan-16 13:46 090 0 gusting 3 16.1
2020-Jan-16 13:37 135 0 gusting 2 16.1
2020-Jan-16 13:28 045 0 gusting 2 16.1
2020-Jan-16 13:18 15.6
2020-Jan-16 13:09 045 1 gusting 3 16.1
2020-Jan-16 13:00 090 2 gusting 5 16.1
2020-Jan-16 12:51 135 3 gusting 6 16.7
2020-Jan-16 12:41 090 2 gusting 5 16.1
2020-Jan-16 12:32 090 1 gusting 3 16.1
2020-Jan-16 12:23 16.1
2020-Jan-16 12:14 090 1 gusting 3 16.1
2020-Jan-16 12:06 090 1 gusting 3 16.1
2020-Jan-16 11:58 090 1 gusting 2 16.1
2020-Jan-16 11:48 090 2 gusting 5 16.1
2020-Jan-16 11:38 090 1 gusting 2 17.2
2020-Jan-16 11:29 090 17.2
2020-Jan-16 11:20 16.7
2020-Jan-16 11:10 270 2 gusting 5 16.1
2020-Jan-16 11:01 270 3 gusting 6 16.1
2020-Jan-16 10:52 225 3 gusting 7 15.6
2020-Jan-16 10:43 270 2 gusting 5 15.6
2020-Jan-16 10:34 225 2 gusting 6 15.6
2020-Jan-16 10:25 15.0
2020-Jan-16 10:16 270 3 gusting 8 15.0
2020-Jan-16 10:08 225 2 gusting 5 15.0
2020-Jan-16 10:00 270 2 gusting 4 15.0
2020-Jan-16 09:51 225 0 gusting 2 15.0
2020-Jan-16 09:42 180 14.4
2020-Jan-16 09:33 045 0 gusting 2 13.9
2020-Jan-16 09:25 225 2 gusting 5 13.3
2020-Jan-16 09:15 180 2 gusting 2 12.8
2020-Jan-16 09:06 12.2
2020-Jan-16 08:56 090 11.7
2020-Jan-16 08:46 135 11.1
2020-Jan-16 08:38 11.1
2020-Jan-16 08:29 135 10.0
2020-Jan-16 08:20 10.0
2020-Jan-16 08:12 135 2 gusting 4 10.0
2020-Jan-16 08:04 10.0
2020-Jan-16 07:54 9.4
2020-Jan-16 07:46 8.9
2020-Jan-16 07:36 8.9
2020-Jan-16 07:26 090 10.0
2020-Jan-16 07:18 090 0 gusting 2 10.0
2020-Jan-16 07:08 180 0 gusting 2 11.1
2020-Jan-16 07:00 270 0 gusting 2 12.2
2020-Jan-16 06:50 270 0 gusting 2 12.2
2020-Jan-16 06:42 315 2 gusting 7 12.2
2020-Jan-16 06:33 270 5 gusting 10 12.2
2020-Jan-16 06:25 270 2 gusting 4 12.2
2020-Jan-16 06:16 270 4 gusting 7 12.2
2020-Jan-16 06:07 270 1 gusting 3 12.2
2020-Jan-16 05:59 270 3 gusting 8 12.2
2020-Jan-16 05:49 12.2
2020-Jan-16 05:40 270 5 gusting 7 12.2
2020-Jan-16 05:32 270 2 gusting 7 12.2
2020-Jan-16 05:22 270 2 gusting 5 11.7
2020-Jan-16 05:13 270 2 gusting 5 11.7
2020-Jan-16 05:05 11.7
2020-Jan-16 04:55 11.7
2020-Jan-16 04:47 11.7
2020-Jan-16 04:38 270 7 gusting 13 11.7
2020-Jan-16 04:28 270 5 gusting 7 11.7
2020-Jan-16 04:19 225 5 gusting 9 11.7
2020-Jan-16 04:10 270 5 gusting 8 11.7
2020-Jan-16 04:01 270 5 gusting 8 11.7
2020-Jan-16 03:51 225 3 gusting 6 11.7
2020-Jan-16 03:42 270 3 gusting 5 11.7
2020-Jan-16 03:33 270 4 gusting 6 11.7
2020-Jan-16 03:24 315 6 gusting 10 11.7
2020-Jan-16 03:15 11.7
2020-Jan-16 03:06 11.7
2020-Jan-16 02:57 270 2 gusting 3 11.7
2020-Jan-16 02:48 225 6 gusting 10 11.7
2020-Jan-16 02:40 225 7 gusting 13 11.7
2020-Jan-16 02:32 270 6 gusting 8 11.7
2020-Jan-16 02:23 315 4 gusting 6 11.1
2020-Jan-16 02:13 045 5 gusting 7 11.7
2020-Jan-16 02:05 270 7 gusting 13 11.7
2020-Jan-16 01:57 270 3 gusting 7 11.7
2020-Jan-16 01:47 270 4 gusting 6 11.7
2020-Jan-16 01:37 270 5 gusting 7 11.7
2020-Jan-16 01:29 225 6 gusting 10 11.7
2020-Jan-16 01:21 270 4 gusting 7 11.7
2020-Jan-16 01:12 315 6 gusting 11 11.7
2020-Jan-16 01:02 270 3 gusting 6 11.7
2020-Jan-16 00:54 270 5 gusting 8 11.7
2020-Jan-16 00:45 270 3 gusting 6 12.2
2020-Jan-16 00:35 270 5 gusting 8 12.2
2020-Jan-16 00:27 270 2 gusting 5 12.2
2020-Jan-16 00:17 270 4 gusting 7 12.2
2020-Jan-16 00:08 315 2 gusting 6 12.2
2020-Jan-16 00:00 270 2 gusting 6 12.2
2020-Jan-15 23:50 270 2 gusting 7 12.2
2020-Jan-15 23:41 270 3 gusting 5 12.8
2020-Jan-15 23:32 270 2 gusting 5 12.2
2020-Jan-15 23:24 270 2 gusting 3 12.2
2020-Jan-15 23:14 270 4 gusting 7 12.2
2020-Jan-15 23:06 315 3 gusting 6 12.2
2020-Jan-15 22:56 270 2 gusting 4 12.2
2020-Jan-15 22:48 315 2 gusting 4 12.2
2020-Jan-15 22:39 315 5 gusting 7 12.2
2020-Jan-15 22:29 315 3 gusting 6 12.2
2020-Jan-15 22:21 270 5 gusting 7 12.2
2020-Jan-15 22:12 270 5 gusting 7 12.2
2020-Jan-15 22:03 270 3 gusting 6 12.8
2020-Jan-15 21:55 270 4 gusting 6 12.8
2020-Jan-15 21:46 270 5 gusting 8 12.8
2020-Jan-15 21:38 270 3 gusting 5 13.3
2020-Jan-15 21:28 270 2 gusting 5 13.3
2020-Jan-15 21:19 270 5 gusting 8 13.3
2020-Jan-15 21:10 270 2 gusting 6 13.3
2020-Jan-15 21:00 270 5 gusting 7 13.3
2020-Jan-15 20:50 270 4 gusting 7 13.3
2020-Jan-15 20:42 270 2 gusting 5 13.3
2020-Jan-15 20:33 13.3
2020-Jan-15 20:24 270 4 gusting 7 13.3
2020-Jan-15 20:15 270 3 gusting 5 12.8
2020-Jan-15 20:06 270 2 gusting 3 13.3
2020-Jan-15 19:57 270 2 gusting 5 13.3
2020-Jan-15 19:47 270 2 gusting 3 13.3
2020-Jan-15 19:39 225 1 gusting 2 13.3
2020-Jan-15 19:30 225 1 gusting 3 13.3
2020-Jan-15 19:20 270 2 gusting 5 13.9
2020-Jan-15 19:11 270 2 gusting 4 13.9
2020-Jan-15 19:03 270 5 gusting 7 14.4
2020-Jan-15 18:54 270 5 gusting 9 14.4
2020-Jan-15 18:45 270 0 gusting 2 14.4
2020-Jan-15 18:37 180 2 gusting 5 14.4
2020-Jan-15 18:28 13.9
2020-Jan-15 18:19 13.3
2020-Jan-15 18:11 270 1 gusting 2 13.3
2020-Jan-15 18:01 270 1 gusting 3 13.9